createdAt,value
2023-09-03T00:00:04.517Z,100662.22
2023-09-03T00:00:24.686Z,100659.78
2023-09-03T00:00:38.581Z,100661.41
2023-09-03T00:00:54.469Z,100654.34
2023-09-03T00:01:08.712Z,100662.22
2023-09-03T00:01:20.732Z,100655.19
2023-09-03T00:01:32.603Z,100657.88
2023-09-03T00:01:49.019Z,100664.38
2023-09-03T00:02:03.547Z,100662.50
2023-09-03T00:02:15.514Z,100660.84
2023-09-03T00:02:31.238Z,100660.84
2023-09-03T00:02:45.277Z,100658.13
2023-09-03T00:02:57.201Z,100658.13
2023-09-03T00:03:09.253Z,100662.75
2023-09-03T00:03:24.628Z,100662.75
2023-09-03T00:03:36.635Z,100661.06
2023-09-03T00:03:48.663Z,100661.91
2023-09-03T00:04:00.745Z,100659.44
2023-09-03T00:04:12.538Z,100658.63
2023-09-03T00:04:29.886Z,100656.16
2023-09-03T00:04:41.964Z,100660.50
2023-09-03T00:04:55.557Z,100665.91
2023-09-03T00:05:11.538Z,100654.50
2023-09-03T00:05:26.311Z,100656.16
2023-09-03T00:05:38.110Z,100659.69
2023-09-03T00:05:57.218Z,100653.44
2023-09-03T00:06:08.988Z,100660.75
2023-09-03T00:06:20.869Z,100662.66
2023-09-03T00:06:32.639Z,100661.81
2023-09-03T00:06:50.449Z,100663.72
2023-09-03T00:07:02.306Z,100657.22
2023-09-03T00:07:16.710Z,100659.38
2023-09-03T00:07:28.470Z,100659.38
2023-09-03T00:07:44.287Z,100664.78
2023-09-03T00:07:56.010Z,100664.78
2023-09-03T00:08:07.838Z,100663.94
2023-09-03T00:08:24.956Z,100656.66
2023-09-03T00:08:36.952Z,100666.66
2023-09-03T00:08:48.711Z,100663.13
2023-09-03T00:09:02.804Z,100663.94
2023-09-03T00:09:18.369Z,100662.31
2023-09-03T00:09:33.033Z,100662.53
2023-09-03T00:09:53.433Z,100657.38
2023-09-03T00:10:09.006Z,100659.00
2023-09-03T00:10:20.859Z,100657.38
2023-09-03T00:10:32.942Z,100657.38
2023-09-03T00:10:51.829Z,100658.19
2023-09-03T00:11:07.136Z,100661.97
2023-09-03T00:11:20.220Z,100661.16
2023-09-03T00:11:32.220Z,100662.22
2023-09-03T00:11:48.272Z,100660.34
2023-09-03T00:12:03.764Z,100660.34
2023-09-03T00:12:21.142Z,100650.44
2023-09-03T00:12:33.140Z,100657.03
2023-09-03T00:12:45.154Z,100656.81
2023-09-03T00:12:56.954Z,100655.13
2023-09-03T00:13:08.692Z,100657.03
2023-09-03T00:13:28.797Z,100656.22
2023-09-03T00:13:51.322Z,100656.22
2023-09-03T00:14:06.645Z,100655.41
2023-09-03T00:14:18.548Z,100652.69
2023-09-03T00:14:33.778Z,100659.97
2023-09-03T00:14:48.214Z,100651.84
2023-09-03T00:15:04.259Z,100655.63
2023-09-03T00:15:16.321Z,100655.41
2023-09-03T00:15:28.052Z,100657.53
2023-09-03T00:15:44.301Z,100659.16
2023-09-03T00:15:56.383Z,100658.59
2023-09-03T00:16:08.242Z,100654.00
2023-09-03T00:16:25.251Z,100649.63
2023-09-03T00:16:41.747Z,100656.72
2023-09-03T00:16:56.100Z,100658.59
2023-09-03T00:17:11.213Z,100655.88
2023-09-03T00:17:24.568Z,100656.97
2023-09-03T00:17:36.390Z,100659.66
2023-09-03T00:17:48.173Z,100654.25
2023-09-03T00:18:01.750Z,100656.13
2023-09-03T00:18:15.102Z,100652.59
2023-09-03T00:18:28.605Z,100651.75
2023-09-03T00:18:45.320Z,100658.00
2023-09-03T00:18:57.099Z,100654.47
2023-09-03T00:19:08.788Z,100652.84
2023-09-03T00:19:25.597Z,100653.66
2023-09-03T00:19:44.003Z,100653.91
2023-09-03T00:19:55.956Z,100654.75
2023-09-03T00:20:09.260Z,100654.97
2023-09-03T00:20:20.988Z,100651.44
2023-09-03T00:20:50.546Z,100657.91
2023-09-03T00:21:12.777Z,100656.88
2023-09-03T00:21:26.878Z,100651.44
2023-09-03T00:21:39.329Z,100656.28
2023-09-03T00:21:51.105Z,100656.03
2023-09-03T00:22:10.970Z,100657.09
2023-09-03T00:22:22.831Z,100655.44
2023-09-03T00:22:38.569Z,100654.03
2023-09-03T00:22:55.933Z,100662.75
2023-09-03T00:23:07.866Z,100662.75
2023-09-03T00:23:22.343Z,100654.88
2023-09-03T00:23:38.945Z,100657.59
2023-09-03T00:23:51.194Z,100655.72
2023-09-03T00:24:11.620Z,100654.03
2023-09-03T00:24:24.547Z,100657.84
2023-09-03T00:24:37.540Z,100662.19
2023-09-03T00:24:58.629Z,100656.16
2023-09-03T00:25:10.695Z,100665.16
2023-09-03T00:25:22.590Z,100655.34
2023-09-03T00:25:38.265Z,100657.25
2023-09-03T00:25:50.113Z,100658.34
2023-09-03T00:26:02.628Z,100655.34
2023-09-03T00:26:18.378Z,100651.84
2023-09-03T00:26:35.421Z,100654.53
2023-09-03T00:26:47.289Z,100656.44
2023-09-03T00:27:02.306Z,100658.34
2023-09-03T00:27:16.687Z,100656.66
2023-09-03T00:27:30.397Z,100646.63
2023-09-03T00:27:42.213Z,100649.63
2023-09-03T00:28:01.640Z,100643.94
2023-09-03T00:28:15.881Z,100655.03
2023-09-03T00:28:28.260Z,100648.75
2023-09-03T00:28:42.119Z,100652.56
2023-09-03T00:29:02.466Z,100656.91
2023-09-03T00:29:17.322Z,100648.22
2023-09-03T00:29:32.180Z,100649.03
2023-09-03T00:29:46.265Z,100643.84
2023-09-03T00:30:04.409Z,100649.03
2023-09-03T00:30:16.256Z,100647.38
2023-09-03T00:30:30.745Z,100643.84
2023-09-03T00:30:43.149Z,100643.03
2023-09-03T00:31:10.269Z,100645.75
2023-09-03T00:31:26.708Z,100648.44
2023-09-03T00:31:42.799Z,100644.06
2023-09-03T00:32:01.729Z,100641.38
2023-09-03T00:32:14.813Z,100646.78
2023-09-03T00:32:26.651Z,100645.97
2023-09-03T00:32:38.915Z,100646.78
2023-09-03T00:32:50.824Z,100639.72
2023-09-03T00:33:02.631Z,100647.88
2023-09-03T00:33:14.495Z,100638.09
2023-09-03T00:33:27.328Z,100637.25
2023-09-03T00:33:42.344Z,100642.69
2023-09-03T00:33:58.403Z,100642.69
2023-09-03T00:34:10.153Z,100647.28
2023-09-03T00:34:22.038Z,100638.34
2023-09-03T00:34:35.594Z,100645.66
2023-09-03T00:34:48.901Z,100639.38
2023-09-03T00:35:00.696Z,100642.09
2023-09-03T00:35:14.525Z,100647.28
2023-09-03T00:35:26.284Z,100647.28
2023-09-03T00:35:43.676Z,100643.75
2023-09-03T00:35:55.715Z,100638.56
2023-09-03T00:36:11.723Z,100645.66
2023-09-03T00:36:23.534Z,100643.16
2023-09-03T00:36:35.682Z,100650.22
2023-09-03T00:36:47.531Z,100642.34
2023-09-03T00:37:01.701Z,100637.16
2023-09-03T00:37:15.906Z,100648.00
2023-09-03T00:37:29.477Z,100648.81
2023-09-03T00:37:45.453Z,100643.41
2023-09-03T00:37:59.021Z,100648.00
2023-09-03T00:38:10.847Z,100643.66
2023-09-03T00:38:22.817Z,100648.00
2023-09-03T00:38:34.842Z,100637.16
2023-09-03T00:38:51.260Z,100642.81
2023-09-03T00:39:03.348Z,100645.53
2023-09-03T00:39:22.695Z,100645.53
2023-09-03T00:39:42.443Z,100651.81
2023-09-03T00:39:55.939Z,100642.00
2023-09-03T00:40:14.612Z,100652.84
2023-09-03T00:40:26.501Z,100640.13
2023-09-03T00:40:40.528Z,100650.97
2023-09-03T00:40:52.362Z,100650.97
2023-09-03T00:41:04.289Z,100652.63
2023-09-03T00:41:16.210Z,100642.59
2023-09-03T00:41:28.071Z,100640.69
2023-09-03T00:41:39.902Z,100642.59
2023-09-03T00:42:02.360Z,100641.50
2023-09-03T00:42:14.271Z,100637.75
2023-09-03T00:42:26.473Z,100648.38
2023-09-03T00:42:39.013Z,100639.66
2023-09-03T00:43:02.312Z,100639.38
2023-09-03T00:43:17.538Z,100636.66
2023-09-03T00:43:29.440Z,100642.94
2023-09-03T00:43:47.417Z,100636.66
2023-09-03T00:43:59.320Z,100639.38
2023-09-03T00:44:20.365Z,100635.63
2023-09-03T00:44:34.710Z,100637.53
2023-09-03T00:44:46.733Z,100631.00
2023-09-03T00:44:58.907Z,100638.09
2023-09-03T00:45:12.137Z,100635.38
2023-09-03T00:45:25.765Z,100635.38
2023-09-03T00:45:43.389Z,100634.53
2023-09-03T00:45:55.652Z,100641.38
2023-09-03T00:46:11.571Z,100641.38
2023-09-03T00:46:29.441Z,100638.09
2023-09-03T00:46:45.068Z,100637.03
2023-09-03T00:47:04.538Z,100635.13
2023-09-03T00:47:31.800Z,100636.22
2023-09-03T00:47:48.423Z,100641.13
2023-09-03T00:48:00.444Z,100637.84
2023-09-03T00:48:20.279Z,100643.03
2023-09-03T00:48:36.910Z,100632.69
2023-09-03T00:48:49.041Z,100635.94
2023-09-03T00:49:01.034Z,100638.09
2023-09-03T00:49:15.563Z,100636.78
2023-09-03T00:49:33.022Z,100633.16
2023-09-03T00:49:45.170Z,100637.59
2023-09-03T00:50:00.823Z,100636.78
2023-09-03T00:50:13.788Z,100633.72
2023-09-03T00:50:27.746Z,100632.91
2023-09-03T00:50:48.675Z,100635.13
2023-09-03T00:51:08.091Z,100633.72
2023-09-03T00:51:20.296Z,100637.03
2023-09-03T00:51:42.789Z,100634.31
2023-09-03T00:52:13.203Z,100639.72
2023-09-03T00:52:26.742Z,100632.69
2023-09-03T00:52:38.786Z,100633.50
2023-09-03T00:52:50.632Z,100639.72
2023-09-03T00:53:06.435Z,100637.25
2023-09-03T00:53:21.150Z,100635.13
2023-09-03T00:53:41.016Z,100635.94
2023-09-03T00:53:57.346Z,100631.59
2023-09-03T00:54:17.804Z,100639.50
2023-09-03T00:54:36.606Z,100632.41
2023-09-03T00:54:48.691Z,100629.22
2023-09-03T00:55:03.176Z,100630.06
2023-09-03T00:55:17.493Z,100634.41
2023-09-03T00:55:36.373Z,100629.22
2023-09-03T00:55:48.926Z,100633.22
2023-09-03T00:56:01.096Z,100634.41
2023-09-03T00:56:13.551Z,100635.47
2023-09-03T00:56:26.121Z,100638.19
2023-09-03T00:56:40.832Z,100635.47
2023-09-03T00:56:59.734Z,100637.09
2023-09-03T00:57:20.424Z,100631.69
2023-09-03T00:57:35.230Z,100631.69
2023-09-03T00:57:53.273Z,100631.69
2023-09-03T00:58:08.242Z,100634.41
2023-09-03T00:58:20.995Z,100630.88
2023-09-03T00:58:35.302Z,100632.75
2023-09-03T00:58:48.413Z,100636.28
2023-09-03T00:59:07.925Z,100635.47
2023-09-03T00:59:28.685Z,100633.56
2023-09-03T00:59:41.591Z,100635.47
2023-09-03T01:00:04.629Z,100631.69
2023-09-03T01:00:21.749Z,100634.97
2023-09-03T01:00:42.141Z,100639.81
2023-09-03T01:00:57.453Z,100633.56
2023-09-03T01:01:16.100Z,100635.22
2023-09-03T01:01:30.642Z,100634.66
2023-09-03T01:01:49.141Z,100628.38
2023-09-03T01:02:01.265Z,100627.25
2023-09-03T01:02:23.632Z,100631.69
2023-09-03T01:02:37.260Z,100636.88
2023-09-03T01:02:49.701Z,100637.09
2023-09-03T01:03:03.666Z,100632.41
2023-09-03T01:03:27.719Z,100633.22
2023-09-03T01:03:50.028Z,100636.28
2023-09-03T01:04:05.614Z,100632.69
2023-09-03T01:04:17.631Z,100632.75
2023-09-03T01:04:41.475Z,100643.59
2023-09-03T01:04:53.344Z,100639.25
2023-09-03T01:05:07.850Z,100629.69
2023-09-03T01:05:27.633Z,100636.53
2023-09-03T01:05:44.075Z,100635.72
2023-09-03T01:06:10.705Z,100639.25
2023-09-03T01:06:25.772Z,100628.31
2023-09-03T01:06:37.834Z,100631.38
2023-09-03T01:07:03.852Z,100632.19
2023-09-03T01:07:19.625Z,100640.91
2023-09-03T01:07:31.560Z,100638.66
2023-09-03T01:07:43.363Z,100634.31
2023-09-03T01:08:00.144Z,100633.22
2023-09-03T01:08:12.770Z,100635.13
2023-09-03T01:08:26.161Z,100629.69
2023-09-03T01:08:43.247Z,100633.22
2023-09-03T01:09:04.180Z,100624.28
2023-09-03T01:09:23.888Z,100629.97
2023-09-03T01:09:35.867Z,100628.88
2023-09-03T01:09:54.653Z,100630.50
2023-09-03T01:10:09.025Z,100627.81
2023-09-03T01:10:32.925Z,100632.19
2023-09-03T01:10:57.050Z,100629.47
2023-09-03T01:11:24.509Z,100628.38
2023-09-03T01:11:42.822Z,100629.78
2023-09-03T01:12:07.721Z,100622.16
2023-09-03T01:12:22.058Z,100630.06
2023-09-03T01:12:38.566Z,100622.50
2023-09-03T01:12:58.525Z,100623.09
2023-09-03T01:13:26.572Z,100624.72
2023-09-03T01:13:56.830Z,100621.19
2023-09-03T01:14:21.414Z,100622.59
2023-09-03T01:14:39.845Z,100625.28
2023-09-03T01:14:59.748Z,100619.88
2023-09-03T01:15:18.605Z,100625.06
2023-09-03T01:15:38.012Z,100624.22
2023-09-03T01:15:54.922Z,100628.59
2023-09-03T01:16:15.661Z,100622.34
2023-09-03T01:16:35.520Z,100616.91
2023-09-03T01:16:52.783Z,100623.16
2023-09-03T01:17:12.622Z,100619.38
2023-09-03T01:17:35.255Z,100617.75
2023-09-03T01:17:54.671Z,100625.88
2023-09-03T01:18:15.040Z,100614.22
2023-09-03T01:18:28.187Z,100623.97
2023-09-03T01:18:42.206Z,100623.16
2023-09-03T01:19:00.161Z,100621.50
2023-09-03T01:19:41.271Z,100621.50
2023-09-03T01:20:06.939Z,100614.22
2023-09-03T01:20:23.147Z,100623.16
2023-09-03T01:20:39.218Z,100615.25
2023-09-03T01:21:13.928Z,100619.63
2023-09-03T01:21:47.131Z,100617.97
2023-09-03T01:22:07.905Z,100615.25
2023-09-03T01:22:35.204Z,100617.75
2023-09-03T01:23:25.951Z,100612.31
2023-09-03T01:23:46.163Z,100619.38
2023-09-03T01:24:12.990Z,100612.31
2023-09-03T01:24:48.242Z,100618.56
2023-09-03T01:25:21.294Z,100606.88
2023-09-03T01:25:49.377Z,100615.84
2023-09-03T01:26:12.119Z,100612.31
2023-09-03T01:26:51.881Z,100608.78
2023-09-03T01:27:13.708Z,100609.84
2023-09-03T01:27:34.919Z,100608.22
2023-09-03T01:27:57.472Z,100611.72
2023-09-03T01:28:25.393Z,100612.78
2023-09-03T01:28:38.596Z,100610.06
2023-09-03T01:28:55.291Z,100601.38
2023-09-03T01:29:08.232Z,100611.16
2023-09-03T01:29:21.656Z,100611.16
2023-09-03T01:29:34.374Z,100609.53
2023-09-03T01:29:51.499Z,100611.38
2023-09-03T01:30:04.927Z,100608.69
2023-09-03T01:30:20.998Z,100607.84
2023-09-03T01:30:33.336Z,100605.16
2023-09-03T01:30:45.914Z,100607.03
2023-09-03T01:31:06.228Z,100612.47
2023-09-03T01:31:20.377Z,100601.63
2023-09-03T01:31:35.101Z,100605.38
2023-09-03T01:31:50.234Z,100614.38
2023-09-03T01:32:04.828Z,100610.00
2023-09-03T01:32:18.670Z,100605.38
2023-09-03T01:32:39.694Z,100612.69
2023-09-03T01:32:58.849Z,100613.78
2023-09-03T01:33:11.493Z,100610.25
2023-09-03T01:33:28.923Z,100606.69
2023-09-03T01:33:43.040Z,100607.53
2023-09-03T01:33:58.885Z,100612.13
2023-09-03T01:34:13.957Z,100606.69
2023-09-03T01:34:28.815Z,100612.13
2023-09-03T01:34:46.492Z,100614.81
2023-09-03T01:34:59.068Z,100615.91
2023-09-03T01:35:14.059Z,100621.34
2023-09-03T01:35:29.511Z,100612.13
2023-09-03T01:35:47.601Z,100611.53
2023-09-03T01:36:00.674Z,100613.44
2023-09-03T01:36:14.605Z,100618.03
2023-09-03T01:36:26.623Z,100617.22
2023-09-03T01:36:39.121Z,100618.84
2023-09-03T01:36:52.303Z,100616.41
2023-09-03T01:37:07.306Z,100619.13
2023-09-03T01:37:19.500Z,100615.31
2023-09-03T01:37:32.062Z,100619.13
2023-09-03T01:37:45.290Z,100618.03
2023-09-03T01:37:57.830Z,100614.75
2023-09-03T01:38:09.846Z,100617.22
2023-09-03T01:38:27.724Z,100616.41
2023-09-03T01:38:40.085Z,100617.22
2023-09-03T01:38:52.091Z,100617.47
2023-09-03T01:39:04.444Z,100616.41
2023-09-03T01:39:19.236Z,100622.06
2023-09-03T01:39:31.242Z,100619.34
2023-09-03T01:39:43.043Z,100622.88
2023-09-03T01:39:58.171Z,100618.53
2023-09-03T01:40:14.789Z,100623.97
2023-09-03T01:40:26.591Z,100617.69
2023-09-03T01:40:39.267Z,100616.88
2023-09-03T01:40:52.337Z,100621.47
2023-09-03T01:41:05.660Z,100619.59
2023-09-03T01:41:21.299Z,100621.47
2023-09-03T01:41:37.708Z,100614.41
2023-09-03T01:41:49.670Z,100620.66
2023-09-03T01:42:03.398Z,100617.38
2023-09-03T01:42:16.824Z,100621.97
2023-09-03T01:42:29.686Z,100622.78
2023-09-03T01:42:46.264Z,100624.69
2023-09-03T01:42:58.379Z,100616.78
2023-09-03T01:43:15.431Z,100620.31
2023-09-03T01:43:31.843Z,100613.25
2023-09-03T01:43:43.691Z,100623.25
2023-09-03T01:43:58.441Z,100622.22
2023-09-03T01:44:10.963Z,100619.50
2023-09-03T01:44:22.887Z,100612.41
2023-09-03T01:44:41.630Z,100616.22
2023-09-03T01:44:53.846Z,100619.72
2023-09-03T01:45:11.485Z,100622.44
2023-09-03T01:45:27.906Z,100620.56
2023-09-03T01:45:55.070Z,100618.09
2023-09-03T01:46:09.202Z,100616.69
2023-09-03T01:46:26.325Z,100620.00
2023-09-03T01:46:43.020Z,100621.84
2023-09-03T01:47:06.675Z,100624.84
2023-09-03T01:47:34.936Z,100615.84
2023-09-03T01:47:51.983Z,100621.53
2023-09-03T01:48:12.092Z,100624.25
2023-09-03T01:48:35.725Z,100619.88
2023-09-03T01:49:06.686Z,100617.16
2023-09-03T01:49:31.130Z,100620.16
2023-09-03T01:49:51.131Z,100616.59
2023-09-03T01:50:11.934Z,100621.19
2023-09-03T01:50:30.958Z,100616.03
2023-09-03T01:50:47.410Z,100621.44
2023-09-03T01:51:16.658Z,100617.06
2023-09-03T01:51:37.246Z,100617.91
2023-09-03T01:51:58.421Z,100615.44
2023-09-03T01:52:24.230Z,100618.16
2023-09-03T01:52:44.445Z,100619.78
2023-09-03T01:53:01.542Z,100615.44
2023-09-03T01:53:18.876Z,100618.16
2023-09-03T01:53:40.457Z,100620.03
2023-09-03T01:54:00.488Z,100611.88
2023-09-03T01:54:18.858Z,100614.88
2023-09-03T01:54:34.115Z,100614.03
2023-09-03T01:54:49.928Z,100616.75
2023-09-03T01:55:02.528Z,100610.50
2023-09-03T01:55:23.810Z,100625.13
2023-09-03T01:55:42.736Z,100617.00
2023-09-03T01:56:00.920Z,100621.59
2023-09-03T01:56:15.242Z,100609.09
2023-09-03T01:56:30.899Z,100624.53
2023-09-03T01:56:47.254Z,100616.63
2023-09-03T01:57:02.763Z,100622.06
2023-09-03T01:57:24.392Z,100617.44
2023-09-03T01:57:45.750Z,100617.72
2023-09-03T01:58:06.529Z,100615.81
2023-09-03T01:58:22.523Z,100615.81
2023-09-03T01:58:41.685Z,100617.72
2023-09-03T01:58:59.483Z,100617.72
2023-09-03T01:59:25.985Z,100617.72
2023-09-03T01:59:47.051Z,100616.91
2023-09-03T02:00:08.697Z,100615.25
2023-09-03T02:00:26.876Z,100613.59
2023-09-03T02:00:39.654Z,100610.91
2023-09-03T02:00:58.379Z,100608.19
2023-09-03T02:01:16.185Z,100616.31
2023-09-03T02:01:35.335Z,100608.41
2023-09-03T02:01:50.899Z,100615.25
2023-09-03T02:02:03.199Z,100608.41
2023-09-03T02:02:18.112Z,100609.50
2023-09-03T02:02:32.315Z,100617.38
2023-09-03T02:02:48.999Z,100613.03
2023-09-03T02:03:06.620Z,100607.84
2023-09-03T02:03:25.819Z,100611.13
2023-09-03T02:03:38.812Z,100605.13
2023-09-03T02:03:54.772Z,100611.34
2023-09-03T02:04:06.763Z,100610.53
2023-09-03T02:04:19.200Z,100611.00
2023-09-03T02:04:35.814Z,100608.03
2023-09-03T02:04:47.898Z,100615.34
2023-09-03T02:05:03.107Z,100612.44
2023-09-03T02:05:18.718Z,100610.75
2023-09-03T02:05:32.674Z,100610.75
2023-09-03T02:05:46.857Z,100609.09
2023-09-03T02:06:06.643Z,100618.06
2023-09-03T02:06:18.445Z,100611.81
2023-09-03T02:06:30.244Z,100617.25
2023-09-03T02:06:45.940Z,100614.75
2023-09-03T02:06:57.808Z,100619.13
2023-09-03T02:07:15.409Z,100609.84
2023-09-03T02:07:27.530Z,100617.47
2023-09-03T02:07:42.002Z,100618.31
2023-09-03T02:07:57.179Z,100616.88
2023-09-03T02:08:13.855Z,100614.75
2023-09-03T02:08:25.647Z,100625.28
2023-09-03T02:08:42.709Z,100617.72
2023-09-03T02:08:56.597Z,100619.59
2023-09-03T02:09:10.989Z,100618.78
2023-09-03T02:09:22.802Z,100618.78
2023-09-03T02:09:34.763Z,100615.25
2023-09-03T02:09:46.583Z,100621.47
2023-09-03T02:09:58.500Z,100618.78
2023-09-03T02:10:10.775Z,100619.84
2023-09-03T02:10:22.652Z,100624.19
2023-09-03T02:10:34.635Z,100618.19
2023-09-03T02:10:46.675Z,100619.28
2023-09-03T02:11:00.786Z,100617.59
2023-09-03T02:11:20.140Z,100623.88
2023-09-03T02:11:32.057Z,100620.91
2023-09-03T02:11:44.245Z,100623.03
2023-09-03T02:12:01.675Z,100619.50
2023-09-03T02:12:13.934Z,100621.41
2023-09-03T02:12:25.907Z,100619.50
2023-09-03T02:12:39.024Z,100612.44
2023-09-03T02:12:52.709Z,100617.88
2023-09-03T02:13:11.081Z,100623.28
2023-09-03T02:13:24.902Z,100617.06
2023-09-03T02:13:38.011Z,100618.91
2023-09-03T02:13:51.826Z,100614.56
2023-09-03T02:14:04.460Z,100614.56
2023-09-03T02:14:18.973Z,100620.00
2023-09-03T02:14:30.700Z,100613.16
2023-09-03T02:14:42.442Z,100617.50
2023-09-03T02:14:55.737Z,100613.16
2023-09-03T02:15:13.508Z,100609.38
2023-09-03T02:15:25.501Z,100620.22
2023-09-03T02:15:37.263Z,100618.31
2023-09-03T02:15:50.815Z,100618.31
2023-09-03T02:16:02.588Z,100616.69
2023-09-03T02:16:16.005Z,100618.31
2023-09-03T02:16:32.186Z,100614.81
2023-09-03T02:16:44.178Z,100614.81
2023-09-03T02:17:08.985Z,100609.63
2023-09-03T02:17:21.015Z,100607.75
2023-09-03T02:17:32.807Z,100622.09
2023-09-03T02:17:51.196Z,100619.41
2023-09-03T02:18:05.518Z,100622.94
2023-09-03T02:18:17.339Z,100621.03
2023-09-03T02:18:29.191Z,100620.22
2023-09-03T02:18:40.896Z,100621.28
2023-09-03T02:18:52.668Z,100615.88
2023-09-03T02:19:05.929Z,100622.09
2023-09-03T02:19:17.676Z,100624.00
2023-09-03T02:19:29.581Z,100622.34
2023-09-03T02:19:41.297Z,100625.06
2023-09-03T02:19:55.120Z,100626.72
2023-09-03T02:20:16.198Z,100624.81
2023-09-03T02:20:28.037Z,100625.88
2023-09-03T02:20:42.382Z,100626.72
2023-09-03T02:20:56.698Z,100627.53
2023-09-03T02:21:12.857Z,100628.56
2023-09-03T02:21:31.294Z,100622.59
2023-09-03T02:21:43.325Z,100626.94
2023-09-03T02:21:55.270Z,100631.53
2023-09-03T02:22:10.236Z,100623.41
2023-09-03T02:22:25.047Z,100627.75
2023-09-03T02:22:36.807Z,100626.13
2023-09-03T02:22:49.094Z,100625.31
2023-09-03T02:23:00.852Z,100623.66
2023-09-03T02:23:16.928Z,100627.19
2023-09-03T02:23:34.740Z,100628.84
2023-09-03T02:23:46.540Z,100629.88
2023-09-03T02:23:59.580Z,100628.84
2023-09-03T02:24:13.146Z,100629.66
2023-09-03T02:24:25.103Z,100628.84
2023-09-03T02:24:36.836Z,100621.75
2023-09-03T02:24:51.580Z,100631.53
2023-09-03T02:25:05.421Z,100629.88
2023-09-03T02:25:17.153Z,100630.72
2023-09-03T02:25:35.480Z,100624.47
2023-09-03T02:25:47.556Z,100634.25
2023-09-03T02:26:04.480Z,100629.88
2023-09-03T02:26:16.294Z,100636.16
2023-09-03T02:26:28.141Z,100629.88
2023-09-03T02:26:45.497Z,100629.88
2023-09-03T02:26:57.256Z,100625.53
2023-09-03T02:27:11.090Z,100629.88
2023-09-03T02:27:24.115Z,100633.44
2023-09-03T02:27:40.094Z,100635.28
2023-09-03T02:27:51.887Z,100627.19
2023-09-03T02:28:04.113Z,100626.34
2023-09-03T02:28:15.863Z,100638.00
2023-09-03T02:28:30.655Z,100627.19
2023-09-03T02:28:43.741Z,100629.06
2023-09-03T02:28:56.691Z,100638.84
2023-09-03T02:29:08.714Z,100631.78
2023-09-03T02:29:24.005Z,100629.06
2023-09-03T02:29:38.203Z,100632.59
2023-09-03T02:29:50.584Z,100632.00
2023-09-03T02:30:02.397Z,100624.72
2023-09-03T02:30:14.491Z,100632.00
2023-09-03T02:30:26.778Z,100629.28
2023-09-03T02:30:38.589Z,100629.28
2023-09-03T02:30:50.542Z,100637.41
2023-09-03T02:31:02.362Z,100629.56
2023-09-03T02:31:14.160Z,100633.09
2023-09-03T02:31:29.979Z,100624.94
2023-09-03T02:31:41.829Z,100631.44
2023-09-03T02:31:54.295Z,100630.59
2023-09-03T02:32:13.095Z,100636.88
2023-09-03T02:32:26.437Z,100634.38
2023-09-03T02:32:38.268Z,100636.28
2023-09-03T02:32:57.456Z,100635.44
2023-09-03T02:33:11.873Z,100628.16
2023-09-03T02:33:24.541Z,100632.72
2023-09-03T02:33:37.641Z,100628.16
2023-09-03T02:33:50.568Z,100631.91
2023-09-03T02:34:03.312Z,100631.91
2023-09-03T02:34:15.097Z,100632.16
2023-09-03T02:34:27.163Z,100638.41
2023-09-03T02:34:38.949Z,100638.63
2023-09-03T02:34:51.171Z,100635.69
2023-09-03T02:35:04.275Z,100635.91
2023-09-03T02:35:18.011Z,100632.41
2023-09-03T02:35:32.890Z,100635.09
2023-09-03T02:35:53.427Z,100636.16
2023-09-03T02:36:08.536Z,100629.09
2023-09-03T02:36:23.158Z,100632.88
2023-09-03T02:36:34.873Z,100632.03
2023-09-03T02:36:50.807Z,100630.19
2023-09-03T02:37:03.581Z,100632.03
2023-09-03T02:37:15.315Z,100631.22
2023-09-03T02:37:27.100Z,100628.50
2023-09-03T02:37:38.810Z,100635.81
2023-09-03T02:37:50.840Z,100628.50
2023-09-03T02:38:03.140Z,100630.41
2023-09-03T02:38:14.893Z,100629.59
2023-09-03T02:39:34.972Z,100637.94
2023-09-03T02:39:46.879Z,100637.72
2023-09-03T02:40:16.192Z,100634.41
2023-09-03T02:40:40.389Z,100634.41
2023-09-03T02:40:53.823Z,100631.94
2023-09-03T02:41:06.942Z,100639.00
2023-09-03T02:41:18.708Z,100632.75
2023-09-03T02:41:36.612Z,100633.81
2023-09-03T02:41:51.265Z,100639.25
2023-09-03T02:42:03.119Z,100634.88
2023-09-03T02:42:14.932Z,100635.13
2023-09-03T02:42:29.668Z,100632.41
2023-09-03T02:42:41.796Z,100634.28
2023-09-03T02:42:55.742Z,100638.06
2023-09-03T02:43:12.921Z,100638.88
2023-09-03T02:43:24.600Z,100645.38
2023-09-03T02:43:37.140Z,100646.41
2023-09-03T02:43:53.034Z,100636.44
2023-09-03T02:44:05.264Z,100642.06
2023-09-03T02:44:17.048Z,100638.53
2023-09-03T02:44:28.801Z,100642.06
2023-09-03T02:44:41.848Z,100635.84
2023-09-03T02:44:53.854Z,100647.50
2023-09-03T02:45:06.788Z,100642.31
2023-09-03T02:45:18.525Z,100640.41
2023-09-03T02:45:30.283Z,100637.97
2023-09-03T02:45:42.106Z,100635.47
2023-09-03T02:45:53.948Z,100639.25
2023-09-03T02:46:05.834Z,100640.06
2023-09-03T02:46:17.623Z,100638.19
2023-09-03T02:46:30.074Z,100645.50
2023-09-03T02:46:41.953Z,100646.78
2023-09-03T02:46:53.907Z,100644.91
2023-09-03T02:47:06.105Z,100638.66
2023-09-03T02:47:20.078Z,100643.28
2023-09-03T02:47:32.225Z,100641.38
2023-09-03T02:47:44.014Z,100647.84
2023-09-03T02:47:55.793Z,100644.31
2023-09-03T02:48:09.092Z,100640.78
2023-09-03T02:48:21.046Z,100640.78
2023-09-03T02:48:32.973Z,100640.78
2023-09-03T02:48:45.177Z,100639.13
2023-09-03T02:48:57.285Z,100637.25
2023-09-03T02:49:09.072Z,100642.91
2023-09-03T02:49:21.598Z,100643.72
2023-09-03T02:49:33.564Z,100643.13
2023-09-03T02:49:45.387Z,100635.84
2023-09-03T02:49:57.206Z,100635.00
2023-09-03T02:50:09.110Z,100641.50
2023-09-03T02:50:20.915Z,100638.78
2023-09-03T02:50:35.120Z,100641.50
2023-09-03T02:50:46.907Z,100641.50
2023-09-03T02:51:01.104Z,100642.53
2023-09-03T02:51:12.897Z,100638.19
2023-09-03T02:51:24.779Z,100643.63
2023-09-03T02:51:36.825Z,100642.53
2023-09-03T02:51:48.670Z,100643.63
2023-09-03T02:52:00.721Z,100643.38
2023-09-03T02:52:12.434Z,100642.53
2023-09-03T02:52:24.258Z,100642.78
2023-09-03T02:52:36.031Z,100639.25
2023-09-03T02:52:47.774Z,100638.44
2023-09-03T02:52:59.555Z,100637.38
2023-09-03T02:53:11.377Z,100645.50
2023-09-03T02:53:23.178Z,100644.66
2023-09-03T02:53:35.028Z,100645.50
2023-09-03T02:53:47.360Z,100643.63
2023-09-03T02:53:59.382Z,100640.09
2023-09-03T02:54:11.103Z,100639.84
2023-09-03T02:54:22.882Z,100644.66
2023-09-03T02:54:34.717Z,100650.91
2023-09-03T02:54:46.597Z,100640.91
2023-09-03T02:54:58.406Z,100642.78
2023-09-03T02:55:10.304Z,100647.97
2023-09-03T02:55:22.087Z,100640.91
2023-09-03T02:55:34.650Z,100646.31
2023-09-03T02:55:46.435Z,100642.78
2023-09-03T02:55:58.938Z,100642.78
2023-09-03T02:56:11.240Z,100647.13